createdAt,value
2022-08-04T00:03:29.509Z,28.77
2022-08-04T00:08:41.415Z,33.10
2022-08-04T00:13:58.019Z,28.83
2022-08-04T00:19:31.144Z,94.53
2022-08-04T00:24:35.994Z,31.42
2022-08-04T00:29:42.124Z,28.02
2022-08-04T00:34:44.939Z,24.77
2022-08-04T00:39:49.009Z,31.77
2022-08-04T00:45:00.930Z,28.50
2022-08-04T00:50:08.181Z,26.35
2022-08-04T00:55:52.548Z,27.88
2022-08-04T01:01:03.984Z,31.48
2022-08-04T01:06:38.756Z,27.52
2022-08-04T01:12:13.411Z,29.07
2022-08-04T01:17:34.522Z,28.20
2022-08-04T01:23:04.886Z,29.60
2022-08-04T01:28:20.267Z,31.00
2022-08-04T01:33:24.213Z,33.58
2022-08-04T01:38:34.905Z,33.87
2022-08-04T01:43:43.292Z,32.75
2022-08-04T01:48:48.023Z,30.92
2022-08-04T01:53:50.870Z,28.13
2022-08-04T01:58:58.039Z,28.58
2022-08-04T02:04:18.572Z,30.27
2022-08-04T02:09:55.394Z,31.35
2022-08-04T02:15:08.128Z,30.23
2022-08-04T02:20:22.077Z,25.55
2022-08-04T02:25:27.609Z,32.95
2022-08-04T02:30:56.231Z,105.63
2022-08-04T02:36:03.606Z,28.08
2022-08-04T02:41:09.494Z,31.92
2022-08-04T02:46:17.895Z,26.15
2022-08-04T02:51:24.555Z,27.20
2022-08-04T02:56:30.586Z,27.83
2022-08-04T03:01:34.214Z,27.67
2022-08-04T03:06:58.496Z,26.88
2022-08-04T03:12:25.965Z,26.27
2022-08-04T03:17:53.305Z,27.73
2022-08-04T03:23:20.834Z,33.63
2022-08-04T03:29:36.067Z,28.48
2022-08-04T03:35:22.452Z,25.90
2022-08-04T03:40:35.879Z,30.38
2022-08-04T03:46:08.720Z,28.73
2022-08-04T03:51:52.000Z,25.73
2022-08-04T03:57:28.707Z,23.92
2022-08-04T04:02:45.834Z,26.67
2022-08-04T04:08:13.782Z,26.27
2022-08-04T04:14:04.798Z,25.50
2022-08-04T04:19:44.753Z,27.43
2022-08-04T04:25:05.483Z,24.48
2022-08-04T04:30:19.354Z,25.13
2022-08-04T04:35:54.657Z,28.23
2022-08-04T04:41:18.189Z,31.63
2022-08-04T04:46:36.168Z,34.20
2022-08-04T04:51:44.583Z,29.88
2022-08-04T04:57:10.970Z,29.05
2022-08-04T05:02:24.381Z,29.90
2022-08-04T05:08:43.725Z,30.42
2022-08-04T05:14:34.835Z,30.97
2022-08-04T05:19:44.231Z,30.40
2022-08-04T05:24:52.401Z,26.20
2022-08-04T05:30:02.757Z,28.08
2022-08-04T05:35:10.959Z,21.13
2022-08-04T05:40:14.420Z,19.50
2022-08-04T05:45:18.971Z,18.08
2022-08-04T05:50:23.320Z,17.45
2022-08-04T05:55:57.341Z,15.80
2022-08-04T06:00:52.852Z,15.27
2022-08-04T06:05:58.073Z,15.00
2022-08-04T06:11:05.971Z,16.80
2022-08-04T06:16:29.052Z,14.65
2022-08-04T06:21:35.445Z,12.90
2022-08-04T06:26:40.677Z,10.88
2022-08-04T06:32:28.332Z,11.30
2022-08-04T06:37:11.304Z,13.05
2022-08-04T06:42:22.593Z,12.68
2022-08-04T06:47:28.841Z,15.63
2022-08-04T06:52:31.855Z,10.23
2022-08-04T06:57:37.178Z,10.47
2022-08-04T07:02:53.719Z,7.72
2022-08-04T07:07:58.799Z,9.10
2022-08-04T07:13:01.974Z,6.43
2022-08-04T07:18:05.957Z,8.60
2022-08-04T07:23:11.707Z,6.27
2022-08-04T07:28:14.664Z,5.30
2022-08-04T07:33:18.422Z,5.50
2022-08-04T07:38:21.299Z,5.05
2022-08-04T07:43:32.653Z,6.50
2022-08-04T07:48:35.904Z,5.73
2022-08-04T07:53:55.261Z,4.60
2022-08-04T07:59:00.686Z,6.20
2022-08-04T08:04:07.966Z,5.00
2022-08-04T08:09:21.119Z,5.68
2022-08-04T08:14:25.023Z,5.40
2022-08-04T08:19:30.016Z,5.22
2022-08-04T08:24:37.465Z,4.97
2022-08-04T08:29:41.152Z,5.47
2022-08-04T08:34:45.931Z,6.25
2022-08-04T08:40:19.848Z,5.13
2022-08-04T08:45:53.498Z,5.90
2022-08-04T08:51:14.126Z,5.05
2022-08-04T08:56:35.753Z,6.00
2022-08-04T09:02:16.291Z,5.55
2022-08-04T09:07:37.345Z,6.60
2022-08-04T09:12:53.447Z,6.45
2022-08-04T09:18:02.534Z,5.10
2022-08-04T09:23:24.458Z,5.97
2022-08-04T09:28:52.908Z,5.78
2022-08-04T09:34:12.578Z,4.17
2022-08-04T09:39:54.498Z,5.35
2022-08-04T09:45:32.682Z,10.13
2022-08-04T09:50:50.287Z,5.35
2022-08-04T09:56:10.268Z,4.78
2022-08-04T10:01:23.972Z,5.03
2022-08-04T10:06:30.414Z,6.47
2022-08-04T10:11:56.069Z,6.13
2022-08-04T10:17:27.463Z,4.80
2022-08-04T10:22:55.945Z,4.85
2022-08-04T10:28:09.446Z,5.57
2022-08-04T10:33:54.416Z,4.97
2022-08-04T10:39:06.402Z,6.60
2022-08-04T10:44:24.957Z,6.85
2022-08-04T10:49:51.298Z,5.57
2022-08-04T10:55:08.924Z,5.63
2022-08-04T11:00:20.338Z,5.20
2022-08-04T11:05:55.494Z,5.10
2022-08-04T11:11:20.233Z,5.80
2022-08-04T11:16:31.125Z,5.47
2022-08-04T11:21:36.340Z,6.57
2022-08-04T11:26:49.286Z,5.75
2022-08-04T11:31:54.005Z,6.10
2022-08-04T11:37:16.349Z,5.60
2022-08-04T11:42:22.057Z,6.28
2022-08-04T11:47:49.641Z,5.87
2022-08-04T11:52:56.320Z,5.80
2022-08-04T11:58:00.029Z,7.20
2022-08-04T12:03:25.723Z,5.38
2022-08-04T12:08:54.560Z,5.38
2022-08-04T12:14:40.012Z,7.87
2022-08-04T12:20:03.728Z,6.13
2022-08-04T12:25:09.400Z,6.28
2022-08-04T12:31:01.315Z,4.97
2022-08-04T12:36:05.281Z,6.40
2022-08-04T12:41:10.963Z,5.30
2022-08-04T12:46:26.335Z,4.80
2022-08-04T12:52:06.820Z,6.10
2022-08-04T12:56:57.999Z,5.95
2022-08-04T13:02:06.847Z,7.03
2022-08-04T13:07:15.989Z,6.03
2022-08-04T13:12:27.395Z,5.95
2022-08-04T13:18:14.868Z,5.88
2022-08-04T13:23:21.857Z,8.10
2022-08-04T13:28:28.018Z,5.50
2022-08-04T13:33:36.998Z,5.67
2022-08-04T13:38:47.321Z,6.53
2022-08-04T13:44:19.702Z,5.95
2022-08-04T13:49:48.460Z,5.95
2022-08-04T13:54:48.046Z,6.28
2022-08-04T14:00:05.717Z,7.30
2022-08-04T14:05:27.005Z,5.45
2022-08-04T14:10:31.140Z,5.82
2022-08-04T14:16:01.511Z,6.13
2022-08-04T14:21:15.512Z,5.70
2022-08-04T14:26:31.309Z,5.40
2022-08-04T14:31:36.590Z,6.88
2022-08-04T14:37:17.633Z,6.18
2022-08-04T14:42:41.875Z,5.95
2022-08-04T14:47:51.870Z,6.55
2022-08-04T14:53:07.717Z,6.87
2022-08-04T14:58:38.359Z,5.55
2022-08-04T15:03:50.574Z,5.50
2022-08-04T15:09:02.648Z,5.30
2022-08-04T15:14:06.257Z,4.68
2022-08-04T15:19:09.408Z,6.20
2022-08-04T15:24:12.697Z,5.70
2022-08-04T15:29:21.089Z,7.22
2022-08-04T15:34:24.561Z,6.68
2022-08-04T15:39:36.376Z,5.53
2022-08-04T15:45:11.034Z,6.13
2022-08-04T15:50:14.359Z,5.53
2022-08-04T15:55:40.463Z,5.47
2022-08-04T16:00:49.627Z,6.00
2022-08-04T16:05:52.570Z,5.50
2022-08-04T16:10:55.603Z,6.37
2022-08-04T16:16:03.453Z,5.18
2022-08-04T16:21:18.246Z,5.32
2022-08-04T16:26:42.354Z,5.68
2022-08-04T16:32:10.883Z,5.93
2022-08-04T16:37:14.497Z,5.10
2022-08-04T16:42:33.358Z,5.43
2022-08-04T16:47:48.533Z,6.63
2022-08-04T16:52:53.762Z,6.20
2022-08-04T16:57:59.640Z,6.63
2022-08-04T17:03:06.591Z,6.20
2022-08-04T17:14:03.149Z,8.32
2022-08-04T17:19:03.350Z,5.78
2022-08-04T17:24:13.009Z,5.97
2022-08-04T17:29:19.953Z,7.83
2022-08-04T17:34:26.348Z,6.65
2022-08-04T17:39:34.975Z,5.68
2022-08-04T17:44:41.214Z,6.57
2022-08-04T17:49:53.363Z,6.70
2022-08-04T17:55:02.612Z,7.20
2022-08-04T18:00:06.697Z,8.07
2022-08-04T18:05:14.504Z,7.95
2022-08-04T18:10:33.109Z,8.27
2022-08-04T18:15:44.439Z,6.97
2022-08-04T18:20:50.031Z,7.63
2022-08-04T18:25:53.391Z,6.82
2022-08-04T18:30:56.440Z,9.25
2022-08-04T18:36:33.752Z,6.70
2022-08-04T18:41:22.182Z,10.02
2022-08-04T18:46:26.963Z,7.97
2022-08-04T18:51:30.641Z,10.07
2022-08-04T18:56:35.237Z,8.52
2022-08-04T19:02:13.097Z,10.73
2022-08-04T19:08:01.528Z,10.13
2022-08-04T19:12:30.026Z,8.07
2022-08-04T19:17:52.658Z,8.20
2022-08-04T19:24:11.144Z,8.13
2022-08-04T19:28:19.320Z,10.15
2022-08-04T19:33:25.207Z,8.75
2022-08-04T19:38:29.829Z,8.17
2022-08-04T19:43:33.829Z,9.75
2022-08-04T19:48:37.941Z,13.18
2022-08-04T19:53:43.069Z,7.75
2022-08-04T19:58:48.130Z,9.05
2022-08-04T20:04:07.966Z,7.03
2022-08-04T20:09:25.381Z,9.60
2022-08-04T20:14:31.485Z,8.88
2022-08-04T20:19:36.066Z,8.23
2022-08-04T20:24:45.983Z,8.75
2022-08-04T20:29:55.648Z,8.40
2022-08-04T20:34:59.468Z,8.80
2022-08-04T20:40:02.623Z,9.32
2022-08-04T20:45:08.571Z,9.05
2022-08-04T20:50:19.459Z,7.07
2022-08-04T20:55:33.284Z,7.90
2022-08-04T21:00:57.075Z,11.02
2022-08-04T21:06:00.100Z,8.02
2022-08-04T21:11:06.892Z,8.23
2022-08-04T21:16:11.878Z,8.32
2022-08-04T21:21:35.349Z,9.23
2022-08-04T21:26:38.648Z,7.75
2022-08-04T21:31:50.165Z,9.68
2022-08-04T21:36:53.978Z,8.52
2022-08-04T21:42:28.754Z,9.57
2022-08-04T21:47:45.845Z,8.50
2022-08-04T21:52:44.178Z,8.32
2022-08-04T21:57:49.524Z,9.35
2022-08-04T22:02:52.949Z,7.95
2022-08-04T22:07:56.570Z,8.95
2022-08-04T22:12:59.437Z,10.47
2022-08-04T22:18:05.949Z,10.50
2022-08-04T22:28:31.449Z,13.05
2022-08-04T22:33:54.704Z,13.18
2022-08-04T22:39:06.515Z,11.20
2022-08-04T22:44:15.077Z,9.38
2022-08-04T22:49:18.251Z,12.27
2022-08-04T22:54:29.769Z,12.00
2022-08-04T22:59:34.560Z,11.63
2022-08-04T23:04:37.750Z,10.57
2022-08-04T23:09:50.061Z,12.02
2022-08-04T23:14:57.972Z,14.60
2022-08-04T23:20:00.928Z,11.90
2022-08-04T23:25:04.012Z,13.65
2022-08-04T23:30:07.861Z,11.80
2022-08-04T23:35:10.750Z,12.02
2022-08-04T23:40:33.218Z,11.60
2022-08-04T23:46:06.512Z,12.85
2022-08-04T23:51:14.722Z,12.88
2022-08-04T23:56:19.577Z,10.23
